Terminal Aerodrome Forecast
Issued by NWS Mt. Holly, NJ

Home | Current Version | Previous Version | Text Only | Print | Product List | Glossary On
Versions: 1 2 3 4 5 6 7 8 9 10 11 12 13 14 15 16 17 18 19 20 21 22
000
FTUS41 KPHI 290523
TAFRDG
TAF
KRDG 290523Z 2906/3006 VRB03KT P6SM SKC
     FM291400 10004KT P6SM SKC
     FM291800 16006KT P6SM FEW050
     FM300200 17006KT P6SM SCT030=

USA.gov is the U.S. government's official web portal to all federal, state and local government web resources and services.